createdAt,value
2022-11-24T00:01:31.467Z,3.33
2022-11-24T00:04:35.564Z,4.00
2022-11-24T00:07:38.777Z,2.65
2022-11-24T00:10:42.400Z,4.28
2022-11-24T00:14:06.313Z,2.87
2022-11-24T00:17:13.303Z,3.30
2022-11-24T00:20:16.967Z,2.75
2022-11-24T00:23:22.432Z,2.83
2022-11-24T00:26:31.428Z,3.00
2022-11-24T00:29:52.681Z,2.87
2022-11-24T00:32:59.343Z,3.00
2022-11-24T00:36:30.177Z,2.90
2022-11-24T00:40:20.430Z,3.22
2022-11-24T00:44:04.263Z,3.25
2022-11-24T00:47:07.483Z,2.72
2022-11-24T00:50:12.773Z,2.97
2022-11-24T00:53:17.314Z,2.67
2022-11-24T00:56:20.364Z,2.92
2022-11-24T00:59:32.964Z,3.12
2022-11-24T01:02:45.629Z,2.80
2022-11-24T01:05:49.890Z,3.15
2022-11-24T01:08:57.679Z,2.55
2022-11-24T01:15:07.168Z,3.28
2022-11-24T01:18:13.592Z,3.58
2022-11-24T01:21:21.220Z,3.62
2022-11-24T01:24:23.674Z,3.40
2022-11-24T01:27:27.029Z,4.95
2022-11-24T01:30:31.255Z,2.87
2022-11-24T01:33:38.273Z,4.28
2022-11-24T01:36:49.079Z,4.12
2022-11-24T01:39:59.263Z,3.72
2022-11-24T01:43:24.427Z,3.28
2022-11-24T01:46:43.575Z,4.18
2022-11-24T01:49:54.299Z,3.35
2022-11-24T01:52:57.712Z,3.50
2022-11-24T01:56:05.614Z,3.45
2022-11-24T02:02:14.593Z,4.55
2022-11-24T02:05:37.600Z,4.32
2022-11-24T02:08:55.926Z,5.07
2022-11-24T02:12:01.405Z,4.93
2022-11-24T02:15:05.344Z,5.22
2022-11-24T02:18:07.958Z,4.37
2022-11-24T02:21:16.979Z,5.35
2022-11-24T02:24:27.750Z,4.78
2022-11-24T02:27:31.393Z,4.43
2022-11-24T02:30:34.969Z,4.85
2022-11-24T02:33:38.752Z,4.95
2022-11-24T02:36:41.157Z,4.75
2022-11-24T02:39:44.525Z,5.55
2022-11-24T02:42:52.094Z,5.30
2022-11-24T02:45:55.042Z,4.60
2022-11-24T02:49:16.393Z,5.22
2022-11-24T02:52:20.022Z,5.85
2022-11-24T02:55:23.914Z,5.62
2022-11-24T02:58:27.351Z,5.68
2022-11-24T03:01:29.798Z,5.28
2022-11-24T03:04:33.123Z,5.95
2022-11-24T03:07:38.306Z,5.78
2022-11-24T03:10:45.294Z,6.57
2022-11-24T03:13:48.825Z,6.12
2022-11-24T03:17:00.121Z,6.60
2022-11-24T03:20:22.818Z,7.53
2022-11-24T03:23:26.603Z,8.55
2022-11-24T03:26:30.904Z,6.80
2022-11-24T03:29:34.994Z,7.32
2022-11-24T03:32:40.288Z,7.03
2022-11-24T03:35:45.713Z,7.73
2022-11-24T03:38:48.440Z,14.90
2022-11-24T03:41:54.314Z,15.80
2022-11-24T03:44:56.780Z,10.52
2022-11-24T03:48:02.593Z,8.70
2022-11-24T03:51:07.951Z,8.25
2022-11-24T03:54:11.083Z,7.45
2022-11-24T03:57:14.034Z,10.32
2022-11-24T04:00:17.797Z,7.62
2022-11-24T04:03:22.141Z,8.80
2022-11-24T04:06:27.218Z,8.32
2022-11-24T04:09:32.823Z,8.00
2022-11-24T04:12:44.448Z,8.65
2022-11-24T04:15:50.656Z,8.02
2022-11-24T04:19:13.920Z,7.60
2022-11-24T04:22:17.256Z,8.05
2022-11-24T04:25:22.259Z,7.70
2022-11-24T04:28:26.691Z,9.50
2022-11-24T04:31:29.436Z,7.32
2022-11-24T04:34:32.873Z,8.27
2022-11-24T04:37:40.924Z,7.72
2022-11-24T04:40:43.651Z,9.43
2022-11-24T04:43:54.415Z,8.40
2022-11-24T04:46:57.922Z,8.65
2022-11-24T04:50:02.671Z,8.38
2022-11-24T04:53:09.387Z,8.60
2022-11-24T04:56:12.110Z,8.38
2022-11-24T04:59:15.747Z,8.75
2022-11-24T05:02:19.115Z,9.85
2022-11-24T05:05:24.472Z,9.25
2022-11-24T05:08:27.117Z,9.23
2022-11-24T05:11:30.232Z,9.00
2022-11-24T05:14:34.890Z,9.48
2022-11-24T05:17:40.040Z,10.07
2022-11-24T05:20:47.213Z,11.02
2022-11-24T05:23:53.131Z,9.68
2022-11-24T05:26:55.863Z,9.23
2022-11-24T05:29:59.274Z,9.82
2022-11-24T05:33:08.400Z,10.57
2022-11-24T05:36:33.197Z,8.68
2022-11-24T05:39:36.998Z,10.00
2022-11-24T05:42:46.688Z,10.07
2022-11-24T05:45:50.380Z,9.38
2022-11-24T05:48:53.603Z,8.02
2022-11-24T05:51:55.982Z,9.40
2022-11-24T05:54:58.850Z,10.95
2022-11-24T05:58:04.126Z,8.90
2022-11-24T06:01:07.444Z,10.20
2022-11-24T06:04:10.378Z,10.80
2022-11-24T06:07:15.584Z,10.05
2022-11-24T06:10:22.411Z,9.88
2022-11-24T06:13:25.213Z,11.32
2022-11-24T06:16:28.217Z,10.23
2022-11-24T06:19:31.444Z,8.27
2022-11-24T06:22:35.034Z,9.43
2022-11-24T06:25:37.419Z,7.25
2022-11-24T06:28:40.699Z,8.15
2022-11-24T06:31:43.464Z,7.15
2022-11-24T06:34:46.414Z,8.40
2022-11-24T06:37:48.758Z,7.43
2022-11-24T06:41:01.134Z,8.15
2022-11-24T06:44:04.973Z,8.15
2022-11-24T06:47:07.673Z,7.57
2022-11-24T06:50:10.637Z,7.07
2022-11-24T06:53:16.276Z,6.87
2022-11-24T06:56:20.379Z,7.53
2022-11-24T06:59:23.815Z,6.60
2022-11-24T07:02:26.928Z,6.78
2022-11-24T07:05:30.138Z,6.37
2022-11-24T07:08:35.015Z,7.55
2022-11-24T07:11:39.162Z,7.12
2022-11-24T07:14:45.011Z,8.85
2022-11-24T07:17:53.167Z,9.35
2022-11-24T07:20:55.909Z,6.90
2022-11-24T07:23:59.195Z,8.27
2022-11-24T07:27:04.945Z,7.20
2022-11-24T07:30:10.066Z,6.90
2022-11-24T07:33:16.214Z,6.62
2022-11-24T07:36:22.451Z,7.37
2022-11-24T07:39:24.964Z,6.85
2022-11-24T07:42:28.059Z,7.47
2022-11-24T07:45:30.471Z,7.30
2022-11-24T07:48:33.989Z,8.30
2022-11-24T07:51:41.258Z,10.65
2022-11-24T07:54:44.395Z,9.85
2022-11-24T07:57:47.355Z,9.68
2022-11-24T08:00:54.838Z,6.53
2022-11-24T08:03:58.047Z,7.40
2022-11-24T08:07:21.633Z,6.80
2022-11-24T08:10:25.073Z,8.48
2022-11-24T08:13:28.114Z,7.80
2022-11-24T08:16:33.313Z,7.20
2022-11-24T08:19:41.052Z,6.87
2022-11-24T08:22:50.649Z,8.75
2022-11-24T08:26:04.294Z,7.03
2022-11-24T08:29:11.562Z,7.45
2022-11-24T08:32:22.226Z,7.12
2022-11-24T08:35:26.119Z,6.57
2022-11-24T08:38:30.584Z,8.48
2022-11-24T08:41:36.178Z,7.80
2022-11-24T08:44:39.080Z,7.70
2022-11-24T08:48:24.060Z,7.60
2022-11-24T08:51:30.347Z,7.45
2022-11-24T08:54:35.839Z,7.90
2022-11-24T08:57:40.456Z,8.85
2022-11-24T09:00:45.330Z,8.75
2022-11-24T09:03:56.274Z,8.57
2022-11-24T09:07:03.656Z,8.75
2022-11-24T09:10:06.892Z,8.45
2022-11-24T09:13:10.617Z,8.73
2022-11-24T09:16:16.887Z,8.77
2022-11-24T09:19:21.975Z,9.60
2022-11-24T09:25:31.839Z,7.80
2022-11-24T09:28:40.014Z,8.15
2022-11-24T09:31:48.222Z,8.18
2022-11-24T09:34:52.047Z,7.95
2022-11-24T09:37:55.175Z,8.50
2022-11-24T09:41:20.952Z,8.32
2022-11-24T09:44:52.785Z,8.05
2022-11-24T09:48:13.993Z,7.12
2022-11-24T09:51:28.836Z,8.15
2022-11-24T09:54:44.611Z,7.68
2022-11-24T09:58:06.561Z,7.20
2022-11-24T10:01:17.266Z,7.50
2022-11-24T10:04:42.324Z,9.10
2022-11-24T10:08:12.228Z,8.20
2022-11-24T10:11:23.089Z,7.85
2022-11-24T10:14:29.047Z,8.38
2022-11-24T10:17:39.921Z,8.80
2022-11-24T10:21:03.470Z,7.22
2022-11-24T10:24:35.509Z,6.68
2022-11-24T10:27:43.463Z,7.45
2022-11-24T10:30:47.522Z,7.10
2022-11-24T10:33:51.444Z,6.95
2022-11-24T10:37:43.231Z,7.43
2022-11-24T10:40:58.224Z,7.18
2022-11-24T10:44:06.988Z,7.55
2022-11-24T10:47:18.575Z,6.37
2022-11-24T10:50:37.440Z,8.65
2022-11-24T10:53:42.568Z,7.85
2022-11-24T10:56:47.772Z,8.77
2022-11-24T10:59:52.452Z,6.32
2022-11-24T11:03:16.638Z,6.82
2022-11-24T11:06:23.423Z,7.05
2022-11-24T11:09:36.361Z,8.15
2022-11-24T11:12:44.689Z,6.40
2022-11-24T11:15:59.378Z,7.05
2022-11-24T11:20:01.771Z,6.85
2022-11-24T11:23:31.028Z,7.07
2022-11-24T11:26:41.691Z,5.60
2022-11-24T11:34:26.736Z,6.72
2022-11-24T11:38:12.792Z,6.57
2022-11-24T11:41:45.064Z,6.50
2022-11-24T11:45:06.855Z,6.25
2022-11-24T11:48:11.911Z,6.55
2022-11-24T11:51:24.553Z,5.43
2022-11-24T11:54:52.311Z,5.85
2022-11-24T11:58:32.710Z,5.32
2022-11-24T12:01:58.466Z,4.82
2022-11-24T12:05:11.234Z,4.90
2022-11-24T12:08:26.046Z,4.50
2022-11-24T12:12:03.889Z,4.70
2022-11-24T12:15:10.785Z,4.57
2022-11-24T12:18:56.970Z,4.18
2022-11-24T12:22:12.116Z,4.53
2022-11-24T12:25:39.507Z,4.25
2022-11-24T12:29:14.620Z,4.83
2022-11-24T12:32:31.269Z,5.53
2022-11-24T12:35:44.870Z,4.78
2022-11-24T12:39:03.875Z,3.83
2022-11-24T12:42:44.900Z,4.35
2022-11-24T12:46:06.440Z,4.43
2022-11-24T12:49:40.257Z,4.00
2022-11-24T12:53:15.035Z,4.25
2022-11-24T12:56:28.242Z,4.53
2022-11-24T12:59:59.749Z,3.87
2022-11-24T13:03:43.839Z,3.83
2022-11-24T13:07:02.354Z,3.55
2022-11-24T13:14:22.109Z,2.80
2022-11-24T13:20:57.496Z,3.00
2022-11-24T13:24:04.428Z,3.80
2022-11-24T13:27:16.336Z,4.47
2022-11-24T13:30:35.076Z,4.20
2022-11-24T13:33:39.545Z,3.72
2022-11-24T13:36:55.513Z,4.22
2022-11-24T13:40:14.118Z,3.62
2022-11-24T13:43:18.870Z,4.35
2022-11-24T13:47:03.302Z,3.78
2022-11-24T13:50:18.959Z,4.00
2022-11-24T13:53:47.951Z,3.45
2022-11-24T13:56:50.452Z,4.57
2022-11-24T14:00:01.519Z,3.70
2022-11-24T14:03:28.916Z,4.47
2022-11-24T14:06:37.639Z,4.55
2022-11-24T14:09:47.620Z,4.32
2022-11-24T14:13:21.487Z,4.80
2022-11-24T14:16:27.203Z,4.75
2022-11-24T14:19:32.243Z,4.12
2022-11-24T14:22:46.183Z,4.40
2022-11-24T14:25:52.730Z,4.07
2022-11-24T14:29:04.585Z,4.68
2022-11-24T14:32:28.705Z,4.30
2022-11-24T14:35:36.826Z,4.45
2022-11-24T14:38:40.095Z,4.62
2022-11-24T14:41:52.458Z,4.97
2022-11-24T14:45:00.793Z,4.15
2022-11-24T14:48:03.202Z,4.55
2022-11-24T14:51:07.582Z,5.12
2022-11-24T14:54:19.966Z,5.05
2022-11-24T14:57:44.890Z,4.00
2022-11-24T15:01:08.862Z,4.07
2022-11-24T15:04:54.771Z,5.00
2022-11-24T15:08:03.048Z,4.37
2022-11-24T15:11:07.466Z,4.75
2022-11-24T15:14:36.904Z,5.07
2022-11-24T15:17:48.599Z,4.12
2022-11-24T15:20:51.519Z,4.82
2022-11-24T15:24:06.632Z,4.37
2022-11-24T15:27:09.195Z,4.32
2022-11-24T15:30:15.995Z,5.30
2022-11-24T15:33:20.020Z,4.78
2022-11-24T15:36:27.232Z,3.95
2022-11-24T15:39:34.823Z,5.22
2022-11-24T15:42:47.133Z,5.10
2022-11-24T15:45:53.578Z,4.70
2022-11-24T15:48:59.083Z,4.78
2022-11-24T15:52:04.011Z,5.55
2022-11-24T15:55:27.241Z,4.35
2022-11-24T15:58:32.652Z,4.00
2022-11-24T16:01:37.641Z,4.97
2022-11-24T16:04:41.747Z,4.90
2022-11-24T16:07:49.563Z,6.10
2022-11-24T16:10:57.183Z,4.80
2022-11-24T16:14:00.575Z,5.25
2022-11-24T16:17:04.162Z,4.62
2022-11-24T16:20:10.843Z,4.07
2022-11-24T16:23:15.138Z,6.03
2022-11-24T16:26:18.307Z,6.03
2022-11-24T16:29:24.369Z,5.22
2022-11-24T16:32:28.016Z,5.55
2022-11-24T16:35:33.363Z,4.55
2022-11-24T16:38:35.899Z,5.40
2022-11-24T16:41:38.919Z,5.32
2022-11-24T16:44:42.181Z,5.25
2022-11-24T16:47:45.082Z,4.65
2022-11-24T16:50:53.995Z,5.12
2022-11-24T16:53:59.210Z,4.87
2022-11-24T16:57:14.914Z,3.80
2022-11-24T17:00:35.157Z,5.07
2022-11-24T17:03:38.736Z,4.97
2022-11-24T17:06:44.168Z,5.23
2022-11-24T17:09:46.674Z,4.95
2022-11-24T17:12:51.961Z,5.22
2022-11-24T17:15:54.754Z,4.32
2022-11-24T17:18:58.983Z,4.53
2022-11-24T17:22:02.616Z,5.15
2022-11-24T17:25:06.598Z,5.57
2022-11-24T17:28:09.418Z,8.43
2022-11-24T17:31:17.881Z,6.50
2022-11-24T17:34:20.806Z,5.93
2022-11-24T17:37:24.079Z,5.35
2022-11-24T17:40:29.684Z,4.68
2022-11-24T17:43:35.534Z,5.28
2022-11-24T17:46:39.029Z,5.43
2022-11-24T17:49:42.114Z,6.68
2022-11-24T17:52:48.786Z,5.85
2022-11-24T17:55:56.967Z,5.93
2022-11-24T17:59:03.038Z,5.82
2022-11-24T18:02:10.186Z,6.25
2022-11-24T18:05:16.107Z,6.70
2022-11-24T18:08:22.142Z,6.07
2022-11-24T18:11:31.397Z,5.80
2022-11-24T18:14:55.119Z,7.43
2022-11-24T18:17:58.548Z,6.12
2022-11-24T18:21:02.405Z,8.02
2022-11-24T18:24:12.499Z,6.18
2022-11-24T18:27:17.863Z,6.60
2022-11-24T18:30:21.218Z,6.03
2022-11-24T18:33:23.625Z,6.12
2022-11-24T18:36:30.510Z,5.12
2022-11-24T18:39:34.373Z,6.95
2022-11-24T18:42:37.563Z,5.72
2022-11-24T18:45:42.235Z,6.53
2022-11-24T18:48:47.997Z,4.87
2022-11-24T18:51:56.438Z,5.03
2022-11-24T18:55:04.238Z,5.35
2022-11-24T18:58:06.647Z,4.60
2022-11-24T19:05:06.799Z,4.53
2022-11-24T19:08:12.447Z,6.32
2022-11-24T19:11:39.450Z,4.82
2022-11-24T19:15:14.899Z,5.40
2022-11-24T19:18:21.163Z,5.72
2022-11-24T19:21:25.072Z,4.40
2022-11-24T19:24:28.605Z,5.32
2022-11-24T19:27:51.474Z,4.87
2022-11-24T19:30:53.890Z,5.78
2022-11-24T19:33:58.631Z,5.25
2022-11-24T19:37:02.201Z,3.87
2022-11-24T19:40:06.229Z,5.18
2022-11-24T19:43:08.634Z,4.75
2022-11-24T19:46:14.492Z,5.15
2022-11-24T19:49:36.919Z,5.28
2022-11-24T19:52:46.418Z,3.90
2022-11-24T19:55:50.826Z,4.78
2022-11-24T19:58:55.451Z,3.60
2022-11-24T20:01:58.502Z,4.62
2022-11-24T20:05:04.276Z,6.00
2022-11-24T20:08:06.748Z,6.72
2022-11-24T20:11:18.542Z,4.00
2022-11-24T20:14:23.322Z,4.10
2022-11-24T20:17:30.032Z,4.47
2022-11-24T20:20:33.259Z,5.75
2022-11-24T20:24:25.088Z,5.95
2022-11-24T20:27:32.107Z,5.55
2022-11-24T20:30:36.116Z,3.97
2022-11-24T20:33:48.600Z,5.20
2022-11-24T20:37:13.675Z,5.30
2022-11-24T20:40:20.718Z,4.12
2022-11-24T20:43:24.382Z,6.18
2022-11-24T20:46:30.075Z,5.22
2022-11-24T20:49:33.099Z,4.93
2022-11-24T20:52:35.911Z,4.78
2022-11-24T20:55:43.452Z,5.50
2022-11-24T20:58:50.702Z,5.97
2022-11-24T21:02:00.865Z,5.57
2022-11-24T21:05:24.464Z,5.35
2022-11-24T21:08:28.401Z,5.53
2022-11-24T21:11:34.406Z,4.85
2022-11-24T21:14:38.925Z,4.97
2022-11-24T21:17:46.037Z,5.72
2022-11-24T21:21:28.591Z,5.57
2022-11-24T21:24:31.469Z,6.28
2022-11-24T21:27:36.172Z,5.78
2022-11-24T21:30:56.316Z,5.35
2022-11-24T21:34:19.201Z,4.68
2022-11-24T21:38:04.772Z,4.12
2022-11-24T21:41:12.041Z,5.18
2022-11-24T21:44:35.680Z,4.80
2022-11-24T21:48:45.976Z,5.93
2022-11-24T21:52:12.395Z,3.75
2022-11-24T21:55:17.708Z,4.70
2022-11-24T21:58:51.838Z,5.57
2022-11-24T22:01:55.249Z,5.12
2022-11-24T22:05:18.685Z,5.75
2022-11-24T22:08:41.057Z,4.82
2022-11-24T22:11:45.346Z,5.53
2022-11-24T22:15:08.423Z,5.43
2022-11-24T22:18:13.918Z,4.18
2022-11-24T22:21:19.402Z,5.25
2022-11-24T22:25:02.685Z,5.60
2022-11-24T22:28:38.689Z,5.20
2022-11-24T22:32:25.756Z,4.68
2022-11-24T22:36:04.096Z,5.55
2022-11-24T22:39:52.110Z,4.85
2022-11-24T22:43:23.186Z,5.12
2022-11-24T22:46:59.994Z,3.83
2022-11-24T22:50:39.669Z,5.97
2022-11-24T22:54:17.982Z,5.18
2022-11-24T22:57:20.910Z,6.97
2022-11-24T23:05:07.194Z,5.07
2022-11-24T23:08:53.099Z,6.25
2022-11-24T23:15:33.814Z,5.62
2022-11-24T23:18:53.522Z,3.80
2022-11-24T23:22:20.888Z,4.68
2022-11-24T23:25:37.895Z,4.95
2022-11-24T23:29:09.354Z,5.75
2022-11-24T23:32:29.371Z,5.95
2022-11-24T23:36:15.779Z,5.55
2022-11-24T23:39:31.073Z,5.75
2022-11-24T23:43:02.021Z,4.57
2022-11-24T23:46:24.184Z,5.45
2022-11-24T23:50:15.655Z,4.10
2022-11-24T23:57:22.470Z,3.85
